Time;durP1;ratioP1;P1;durP2;ratioP2;P2;SDS_P1;SDS_P2;PMS_P1;PMS_P2;Temp;Humidity;BMP_temperature;BMP_pressure;BME280_temperature;BME280_humidity;BME280_pressure;Samples;Min_cycle;Max_cycle;Signal;HPM_P1;HPM_P2
2023/09/24 00:01:50;;;;;;;11.90;6.97;;;;;;;22.81;79.56;99572.16;5075903;28;20036;-65
2023/09/24 00:04:17;;;;;;;15.05;7.25;;;;;;;22.78;79.92;99570.72;5076013;28;20035;-67
2023/09/24 00:06:43;;;;;;;12.45;7.45;;;;;;;22.90;79.57;99568.81;5075781;28;20071;-67
2023/09/24 00:09:08;;;;;;;10.70;7.30;;;;;;;23.07;78.99;99574.19;5075893;28;20036;-67
2023/09/24 00:11:34;;;;;;;10.40;7.00;;;;;;;23.28;77.96;99580.72;5075768;28;20054;-65
2023/09/24 00:13:59;;;;;;;15.98;6.90;;;;;;;23.41;77.32;99587.63;5075926;28;20033;-67
2023/09/24 00:16:25;;;;;;;11.60;6.95;;;;;;;23.58;76.38;99576.81;5075622;28;20341;-65
2023/09/24 00:18:50;;;;;;;10.80;6.65;;;;;;;23.66;76.03;99579.91;5076276;28;20028;-64
2023/09/24 00:21:16;;;;;;;10.15;7.18;;;;;;;23.64;75.67;99578.50;5075742;28;20349;-67
2023/09/24 00:23:41;;;;;;;13.27;7.75;;;;;;;23.51;75.76;99580.50;5075056;28;20059;-64
2023/09/24 00:26:07;;;;;;;10.82;6.53;;;;;;;23.46;75.96;99580.41;5076202;28;20044;-66
2023/09/24 00:28:32;;;;;;;12.30;6.85;;;;;;;23.45;76.08;99581.50;5075016;28;20044;-66
2023/09/24 00:31:00;;;;;;;12.40;7.28;;;;;;;23.60;75.51;99591.72;5075873;28;20043;-64
2023/09/24 00:33:27;;;;;;;18.50;8.13;;;;;;;23.74;75.28;99590.28;5076130;28;20044;-67
2023/09/24 00:35:53;;;;;;;16.30;7.93;;;;;;;23.82;74.68;99589.00;5074262;28;20035;-67
2023/09/24 00:38:18;;;;;;;14.73;7.40;;;;;;;23.86;74.07;99592.84;5075589;28;20048;-64
2023/09/24 00:40:44;;;;;;;14.27;7.43;;;;;;;23.76;74.43;99584.59;5075760;28;20273;-64
2023/09/24 00:43:31;;;;;;;13.50;7.18;;;;;;;23.57;75.29;99586.81;5075511;28;20390;-67
2023/09/24 00:45:58;;;;;;;12.73;7.97;;;;;;;23.46;75.80;99576.91;5074430;28;20040;-65
2023/09/24 00:48:28;;;;;;;12.90;6.95;;;;;;;23.22;76.97;99577.13;5075689;28;20277;-64
2023/09/24 00:51:09;;;;;;;13.45;7.22;;;;;;;23.31;76.66;99584.78;5075201;28;20036;-65
2023/09/24 00:53:37;;;;;;;13.00;8.02;;;;;;;23.41;76.83;99595.75;5068804;28;20063;-65
2023/09/24 00:56:04;;;;;;;17.00;8.07;;;;;;;23.49;75.89;99606.13;5075681;28;20028;-64
2023/09/24 00:58:31;;;;;;;13.27;7.32;;;;;;;23.57;75.80;99600.31;5075649;28;20036;-65
2023/09/24 01:00:59;;;;;;;12.88;7.72;;;;;;;23.65;75.68;99596.38;5075572;28;20040;-65
2023/09/24 01:03:26;;;;;;;9.55;7.10;;;;;;;23.65;73.53;99589.06;5075250;28;20040;-67
2023/09/24 01:05:52;;;;;;;11.57;7.00;;;;;;;23.66;73.21;99600.69;5075443;28;20346;-65
2023/09/24 01:08:20;;;;;;;13.40;7.07;;;;;;;23.63;73.97;99602.03;5075381;28;20123;-67
2023/09/24 01:10:49;;;;;;;12.05;7.47;;;;;;;23.62;74.54;99613.91;5075884;28;20039;-67
2023/09/24 01:13:15;;;;;;;9.30;6.63;;;;;;;23.69;74.74;99603.72;5075724;28;20352;-66
2023/09/24 01:15:44;;;;;;;8.75;6.63;;;;;;;23.65;74.20;99610.69;5075302;28;20226;-64
2023/09/24 01:18:10;;;;;;;12.02;6.90;;;;;;;23.70;73.46;99612.66;5075219;28;20107;-65
2023/09/24 01:20:36;;;;;;;17.13;7.90;;;;;;;23.69;72.68;99609.13;5075049;28;20089;-67
2023/09/24 01:23:03;;;;;;;11.98;6.60;;;;;;;23.67;72.38;99602.34;5074474;28;20372;-64
2023/09/24 01:25:33;;;;;;;9.02;6.30;;;;;;;23.62;70.79;99602.28;5075110;28;20879;-65
2023/09/24 01:27:59;;;;;;;10.70;7.40;;;;;;;23.62;71.09;99607.69;5074956;28;20048;-65
2023/09/24 01:30:24;;;;;;;12.90;7.63;;;;;;;23.62;73.25;99600.38;5075473;28;20123;-66
2023/09/24 01:32:50;;;;;;;14.38;7.80;;;;;;;23.62;74.20;99605.78;5075333;28;20055;-64
2023/09/24 01:35:17;;;;;;;12.52;7.22;;;;;;;23.62;74.72;99608.50;5077346;28;20036;-65
2023/09/24 01:37:42;;;;;;;13.65;8.10;;;;;;;23.62;74.49;99599.56;5078599;28;20045;-64
2023/09/24 01:40:18;;;;;;;10.98;6.93;;;;;;;23.57;71.16;99605.72;5078661;28;20032;-67
2023/09/24 01:42:44;;;;;;;11.35;6.93;;;;;;;23.36;72.92;99598.38;5078541;28;20044;-67
2023/09/24 01:45:10;;;;;;;16.63;7.35;;;;;;;23.28;74.24;99588.81;5080125;28;20039;-66
2023/09/24 01:47:37;;;;;;;13.30;7.07;;;;;;;23.24;74.26;99590.38;5078718;28;20187;-65
2023/09/24 01:50:06;;;;;;;8.73;7.03;;;;;;;23.18;73.20;99588.66;5076263;28;20338;-66
2023/09/24 01:52:34;;;;;;;12.73;7.72;;;;;;;22.91;75.68;99593.94;5078280;28;20116;-64
2023/09/24 01:55:00;;;;;;;10.38;7.40;;;;;;;22.88;76.53;99597.91;5077758;28;20055;-64
2023/09/24 01:57:25;;;;;;;17.30;8.25;;;;;;;22.70;76.82;99595.44;5078707;28;20192;-67
2023/09/24 01:59:51;;;;;;;13.35;7.40;;;;;;;22.82;75.69;99603.47;5078346;28;20334;-67
2023/09/24 02:02:16;;;;;;;11.65;7.90;;;;;;;22.80;75.94;99601.03;5078390;28;20040;-66
2023/09/24 02:04:41;;;;;;;14.07;8.48;;;;;;;22.79;77.01;99612.84;5077987;28;20025;-64
2023/09/24 02:07:08;;;;;;;12.18;7.80;;;;;;;22.80;77.01;99622.63;5077880;28;20044;-64
2023/09/24 02:09:35;;;;;;;14.13;7.57;;;;;;;22.74;77.83;99631.66;5078287;28;20051;-67
2023/09/24 02:12:01;;;;;;;10.88;7.53;;;;;;;22.86;77.49;99623.53;5078063;28;20078;-67
2023/09/24 02:14:26;;;;;;;12.63;8.30;;;;;;;22.93;77.22;99619.63;5077986;28;20341;-64
2023/09/24 02:16:51;;;;;;;12.05;7.68;;;;;;;22.98;76.84;99612.66;5078134;28;20032;-65
2023/09/24 02:19:17;;;;;;;11.60;7.82;;;;;;;23.01;76.76;99612.19;5078116;28;20036;-67
2023/09/24 02:21:43;;;;;;;14.13;8.30;;;;;;;23.07;76.43;99605.78;5079210;28;20036;-66
2023/09/24 02:24:09;;;;;;;12.27;7.15;;;;;;;23.00;74.20;99602.44;5079423;28;20032;-66
2023/09/24 02:26:34;;;;;;;12.32;8.25;;;;;;;22.89;75.88;99601.47;5078622;28;20645;-64
2023/09/24 02:29:00;;;;;;;11.50;7.10;;;;;;;22.67;77.24;99597.78;5078267;28;20196;-67
2023/09/24 02:31:26;;;;;;;11.35;8.05;;;;;;;22.73;77.16;99604.91;5078604;28;20040;-65
2023/09/24 02:33:52;;;;;;;13.23;8.07;;;;;;;22.78;77.29;99603.13;5078422;28;20108;-65
2023/09/24 02:36:17;;;;;;;10.27;7.75;;;;;;;;;;5069357;28;20060;-65
2023/09/24 02:38:43;;;;;;;13.55;7.78;;;;;;;22.64;77.23;99593.69;5078330;28;20369;-64
2023/09/24 02:41:10;;;;;;;11.23;8.07;;;;;;;22.59;76.03;99593.63;5077498;28;20028;-67
2023/09/24 02:43:37;;;;;;;14.23;8.52;;;;;;;22.66;76.90;99593.47;5077754;28;20072;-64
2023/09/24 02:46:03;;;;;;;14.38;8.13;;;;;;;22.69;76.88;99601.06;5077611;28;20024;-67
2023/09/24 02:48:29;;;;;;;11.73;8.02;;;;;;;22.58;77.44;99617.09;5077477;28;20326;-65
2023/09/24 02:50:54;;;;;;;14.10;8.30;;;;;;;22.54;77.86;99617.81;5077884;28;20039;-64
2023/09/24 02:53:20;;;;;;;15.73;8.38;;;;;;;22.61;78.02;99615.78;5077277;28;20083;-64
2023/09/24 02:55:46;;;;;;;10.68;8.18;;;;;;;22.55;77.66;99625.66;5077374;28;20028;-64
2023/09/24 02:58:13;;;;;;;12.93;7.70;;;;;;;22.65;76.97;99618.81;5077453;28;20052;-67
2023/09/24 03:00:44;;;;;;;12.38;7.35;;;;;;;22.65;76.08;99621.50;5077218;28;20044;-65
2023/09/24 03:03:10;;;;;;;13.07;8.57;;;;;;;22.66;76.37;99615.88;5076864;28;20032;-64
2023/09/24 03:05:36;;;;;;;10.70;7.60;;;;;;;22.67;76.61;99620.19;5076604;28;20036;-67
2023/09/24 03:08:03;;;;;;;10.05;7.22;;;;;;;22.72;75.73;99617.59;5077228;28;20043;-67
2023/09/24 03:10:31;;;;;;;11.27;7.35;;;;;;;22.70;74.19;99624.28;5075795;28;20106;-67
2023/09/24 03:12:57;;;;;;;11.25;7.10;;;;;;;22.70;74.69;99616.19;5077429;28;20032;-67
2023/09/24 03:15:25;;;;;;;10.80;7.80;;;;;;;22.69;74.44;99619.97;5077235;28;20044;-66
2023/09/24 03:17:51;;;;;;;11.00;7.47;;;;;;;22.63;75.42;99616.34;5077136;28;20036;-67
2023/09/24 03:20:17;;;;;;;13.40;8.50;;;;;;;22.61;75.85;99624.69;5076827;28;20036;-65
2023/09/24 03:22:50;;;;;;;13.70;9.07;;;;;;;22.58;76.75;99630.56;5076673;28;20040;-64
2023/09/24 03:25:18;;;;;;;10.27;7.57;;;;;;;22.59;76.88;99626.00;5075873;28;20028;-64
2023/09/24 03:27:57;;;;;;;12.70;8.20;;;;;;;22.52;76.65;99630.72;5076624;28;20674;-65
2023/09/24 03:30:24;;;;;;;13.00;7.45;;;;;;;22.50;75.77;99638.25;5074960;28;20241;-67
2023/09/24 03:32:51;;;;;;;10.52;7.35;;;;;;;22.50;74.83;99638.25;5076404;28;20062;-67
2023/09/24 03:35:21;;;;;;;13.57;8.52;;;;;;;22.47;76.58;99639.56;5076502;28;20044;-65
2023/09/24 03:37:47;;;;;;;11.75;8.35;;;;;;;22.46;76.75;99643.31;5076148;28;20032;-67
2023/09/24 03:40:20;;;;;;;12.93;7.47;;;;;;;22.46;75.54;99646.00;5076395;28;20376;-64
2023/09/24 03:42:49;;;;;;;11.98;7.18;;;;;;;22.42;74.00;99636.75;5076372;28;20507;-65
2023/09/24 03:45:17;;;;;;;12.60;7.63;;;;;;;22.39;74.17;99636.44;5076478;28;20059;-67
2023/09/24 03:47:44;;;;;;;11.32;8.38;;;;;;;22.36;75.19;99640.44;5076562;28;20066;-64
2023/09/24 03:50:13;;;;;;;13.88;8.07;;;;;;;22.32;73.88;99643.84;5076092;28;20024;-65
2023/09/24 03:52:45;;;;;;;15.00;8.38;;;;;;;22.24;75.60;99653.97;5076216;28;20052;-64
2023/09/24 03:55:11;;;;;;;13.65;8.00;;;;;;;22.20;75.70;99650.09;5076292;28;20040;-64
2023/09/24 03:57:37;;;;;;;13.10;8.15;;;;;;;22.17;75.03;99657.84;5075953;28;20036;-67
2023/09/24 04:00:18;;;;;;;23.10;9.10;;;;;;;22.10;76.68;99646.38;5076478;28;20109;-64
2023/09/24 04:02:47;;;;;;;22.90;9.90;;;;;;;21.97;76.40;99642.88;5076135;28;20226;-65
2023/09/24 04:05:19;;;;;;;20.40;9.13;;;;;;;21.90;78.06;99655.66;5075639;28;20026;-67
2023/09/24 04:07:46;;;;;;;17.92;8.38;;;;;;;21.89;78.05;99654.03;5075701;28;20381;-65
2023/09/24 04:10:14;;;;;;;23.10;9.15;;;;;;;21.89;77.67;99650.53;5076033;28;20037;-67
2023/09/24 04:12:46;;;;;;;17.98;8.30;;;;;;;21.76;76.77;99651.56;5075929;28;20374;-67
2023/09/24 04:15:12;;;;;;;24.38;11.02;;;;;;;21.80;77.20;99654.59;5076090;28;20097;-65
2023/09/24 04:17:37;;;;;;;18.42;11.40;;;;;;;21.72;77.43;99661.19;5075550;28;20107;-66
2023/09/24 04:20:03;;;;;;;24.38;12.02;;;;;;;21.64;78.21;99664.25;5075515;28;20041;-64
2023/09/24 04:22:29;;;;;;;23.13;11.05;;;;;;;21.63;79.09;99666.13;5075647;28;20112;-64
2023/09/24 04:24:54;;;;;;;22.65;10.45;;;;;;;21.69;77.78;99667.03;5075689;28;20214;-65
2023/09/24 04:27:23;;;;;;;18.98;10.45;;;;;;;21.66;78.00;99657.56;5075566;28;20396;-67
2023/09/24 04:29:49;;;;;;;24.73;10.63;;;;;;;21.74;77.89;99669.84;5075219;28;20036;-64
2023/09/24 04:32:15;;;;;;;25.27;13.15;;;;;;;21.81;78.41;99667.84;5075939;28;20037;-67
2023/09/24 04:34:41;;;;;;;33.05;13.15;;;;;;;21.85;78.33;99668.22;5075073;28;20041;-67
2023/09/24 04:37:07;;;;;;;29.25;13.63;;;;;;;21.88;78.00;99663.19;5075388;28;20417;-67
2023/09/24 04:39:32;;;;;;;25.80;14.95;;;;;;;21.91;77.76;99664.59;5074969;28;20055;-67
2023/09/24 04:41:58;;;;;;;25.50;14.75;;;;;;;21.95;77.51;99671.97;5074771;28;20302;-64
2023/09/24 04:44:23;;;;;;;21.92;12.38;;;;;;;22.03;77.51;99676.19;5075418;28;20032;-64
2023/09/24 04:46:49;;;;;;;22.75;12.75;;;;;;;22.04;77.71;99682.41;5075376;28;20036;-65
2023/09/24 04:49:14;;;;;;;21.30;10.98;;;;;;;22.05;77.95;99689.44;5075344;28;20381;-64
2023/09/24 04:51:40;;;;;;;18.80;12.05;;;;;;;22.02;78.46;99692.56;5075182;28;20036;-64
2023/09/24 04:54:06;;;;;;;23.83;12.13;;;;;;;21.97;78.93;99702.19;5076362;28;20034;-66
2023/09/24 04:56:31;;;;;;;20.58;11.40;;;;;;;21.73;79.84;99708.63;5075453;28;20037;-67
2023/09/24 04:58:57;;;;;;;20.73;11.60;;;;;;;21.56;81.36;99703.13;5075647;28;20028;-64
2023/09/24 05:01:23;;;;;;;26.50;12.40;;;;;;;21.62;81.76;99706.78;5075129;28;20403;-67
2023/09/24 05:03:52;;;;;;;25.77;12.38;;;;;;;21.77;81.70;99714.38;5075455;28;20086;-67
2023/09/24 05:06:18;;;;;;;24.88;11.38;;;;;;;21.91;81.52;99705.00;5075035;28;20105;-65
2023/09/24 05:08:44;;;;;;;20.75;11.27;;;;;;;22.08;81.13;99715.91;5075120;28;20044;-65
2023/09/24 05:11:10;;;;;;;23.15;12.70;;;;;;;22.19;80.60;99713.19;5079015;28;20052;-65
2023/09/24 05:13:36;;;;;;;21.77;11.25;;;;;;;22.18;80.89;99713.44;5079161;28;20037;-64
2023/09/24 05:16:01;;;;;;;24.13;11.80;;;;;;;22.31;81.19;99715.84;5079427;28;20231;-66
2023/09/24 05:18:27;;;;;;;20.27;11.60;;;;;;;22.43;80.32;99721.22;5079392;28;20115;-64
2023/09/24 05:20:53;;;;;;;17.60;11.40;;;;;;;22.44;80.31;99718.28;5079147;28;20268;-66
2023/09/24 05:23:19;;;;;;;20.85;10.70;;;;;;;22.46;80.53;99721.56;5078406;28;20234;-67
2023/09/24 05:25:44;;;;;;;18.23;10.13;;;;;;;22.59;80.02;99720.44;5078777;28;20038;-64
2023/09/24 05:28:10;;;;;;;14.73;10.20;;;;;;;22.60;79.94;99714.81;5078866;28;20330;-66
2023/09/24 05:30:35;;;;;;;23.02;10.45;;;;;;;22.74;79.52;99717.22;5078555;28;20035;-64
2023/09/24 05:33:01;;;;;;;18.15;10.13;;;;;;;22.78;79.22;99715.69;5078929;28;20052;-67
2023/09/24 05:35:27;;;;;;;14.55;9.63;;;;;;;22.90;78.92;99711.91;5077040;28;20106;-64
2023/09/24 05:37:52;;;;;;;16.00;9.82;;;;;;;23.03;78.74;99724.28;5079065;28;20918;-64
2023/09/24 05:40:18;;;;;;;24.63;10.57;;;;;;;23.16;78.21;99715.06;5078769;28;20038;-67
2023/09/24 05:42:44;;;;;;;16.95;9.32;;;;;;;23.26;77.74;99726.03;5078496;28;20251;-65
2023/09/24 05:45:10;;;;;;;15.00;8.60;;;;;;;23.25;76.79;99727.91;5075193;28;20036;-64
2023/09/24 05:47:36;;;;;;;16.92;8.90;;;;;;;23.33;76.85;99728.56;5078230;28;20032;-64
2023/09/24 05:50:04;;;;;;;12.98;8.50;;;;;;;23.50;76.14;99718.56;5078292;28;20055;-64
2023/09/24 05:52:30;;;;;;;13.02;8.57;;;;;;;23.62;75.64;99724.72;5078327;28;20372;-65
2023/09/24 05:54:56;;;;;;;15.43;8.45;;;;;;;23.66;73.92;99728.56;5079460;28;20345;-65
2023/09/24 05:57:22;;;;;;;16.75;9.50;;;;;;;23.52;74.70;99730.75;5078260;28;20052;-64
2023/09/24 05:59:47;;;;;;;12.52;9.00;;;;;;;23.64;74.71;99729.88;5078077;28;20028;-66
2023/09/24 06:02:12;;;;;;;15.45;8.20;;;;;;;23.86;74.51;99733.44;5078578;28;20365;-64
2023/09/24 06:04:38;;;;;;;14.82;9.27;;;;;;;24.05;73.90;99732.13;5078313;28;20036;-64
2023/09/24 06:07:05;;;;;;;14.93;9.90;;;;;;;24.13;72.81;99742.50;5078077;28;20326;-67
2023/09/24 06:09:31;;;;;;;12.82;9.27;;;;;;;24.21;71.65;99733.13;5078609;28;20032;-65
2023/09/24 06:11:56;;;;;;;17.23;10.07;;;;;;;23.98;72.47;99739.59;5077309;28;20334;-64
2023/09/24 06:14:22;;;;;;;15.00;8.10;;;;;;;23.90;74.23;99734.59;5077550;28;20036;-65
2023/09/24 06:16:47;;;;;;;11.15;8.20;;;;;;;23.99;72.98;99730.41;5077713;28;20246;-64
2023/09/24 06:19:13;;;;;;;10.88;7.90;;;;;;;24.09;73.23;99737.84;5077981;28;20044;-66
2023/09/24 06:21:39;;;;;;;14.43;8.75;;;;;;;23.85;73.26;99731.81;5076673;28;20099;-65
2023/09/24 06:24:04;;;;;;;13.65;8.48;;;;;;;23.66;74.82;99733.97;5078211;28;20277;-66
2023/09/24 06:26:35;;;;;;;12.30;8.18;;;;;;;23.87;74.37;99729.69;5078999;28;20218;-64
2023/09/24 06:29:00;;;;;;;13.63;9.30;;;;;;;23.97;73.91;99729.03;5077439;28;20040;-64
2023/09/24 06:31:26;;;;;;;13.18;7.63;;;;;;;24.11;73.47;99739.22;5077768;28;20049;-65
2023/09/24 06:33:51;;;;;;;13.10;8.48;;;;;;;24.23;73.05;99735.59;5077253;28;20036;-64
2023/09/24 06:36:17;;;;;;;14.05;7.20;;;;;;;24.24;72.21;99743.47;5077378;28;20047;-65
2023/09/24 06:38:44;;;;;;;9.05;6.53;;;;;;;24.11;72.35;99743.81;5077478;28;20035;-67
2023/09/24 06:41:09;;;;;;;11.60;7.30;;;;;;;23.88;72.92;99739.44;5077615;28;20039;-64
2023/09/24 06:43:35;;;;;;;11.55;7.00;;;;;;;24.19;72.26;99748.81;5078748;28;20029;-65
2023/09/24 06:46:06;;;;;;;8.93;6.05;;;;;;;24.40;70.98;99756.13;5077411;28;20051;-67
2023/09/24 06:48:31;;;;;;;9.52;6.38;;;;;;;24.58;70.55;99746.06;5076926;28;20052;-66
2023/09/24 06:51:08;;;;;;;9.50;5.97;;;;;;;24.58;69.58;99741.47;5077143;28;20059;-65
2023/09/24 06:53:36;;;;;;;10.90;6.38;;;;;;;24.83;68.77;99749.84;5075882;28;20308;-67
2023/09/24 06:56:06;;;;;;;11.98;7.18;;;;;;;25.08;68.28;99743.94;5077258;28;20355;-66
2023/09/24 06:58:33;;;;;;;9.48;7.20;;;;;;;24.92;68.17;99731.25;5077659;28;20052;-67
2023/09/24 07:01:01;;;;;;;10.60;6.90;;;;;;;25.04;67.75;99731.16;5077250;28;20047;-65
2023/09/24 07:03:27;;;;;;;16.52;9.38;;;;;;;25.04;68.07;99733.84;5077065;28;20041;-67
2023/09/24 07:05:53;;;;;;;13.13;9.15;;;;;;;25.23;67.58;99724.28;5076978;28;20234;-65
2023/09/24 07:08:19;;;;;;;11.88;7.35;;;;;;;24.98;67.72;99729.47;5076775;28;20036;-66
2023/09/24 07:10:45;;;;;;;13.88;8.73;;;;;;;24.55;70.03;99727.59;5077100;28;20044;-65
2023/09/24 07:13:11;;;;;;;14.20;9.32;;;;;;;24.60;70.23;99727.66;5076468;28;20046;-66
2023/09/24 07:15:36;;;;;;;12.32;7.88;;;;;;;24.75;68.33;99727.81;5076856;28;20032;-64
2023/09/24 07:18:02;;;;;;;9.30;7.13;;;;;;;24.62;69.03;99733.66;5076868;28;20055;-67
2023/09/24 07:20:27;;;;;;;13.10;7.88;;;;;;;24.69;69.07;99729.66;5076791;28;20036;-64
2023/09/24 07:22:53;;;;;;;12.90;8.82;;;;;;;24.81;69.28;99732.22;5076947;28;20036;-66
2023/09/24 07:25:19;;;;;;;14.77;9.25;;;;;;;24.74;68.84;99737.03;5076616;28;20032;-67
2023/09/24 07:27:44;;;;;;;12.63;8.00;;;;;;;24.97;68.54;99731.34;5076503;28;20041;-64
2023/09/24 07:30:10;;;;;;;10.27;7.22;;;;;;;24.76;68.71;99741.13;5076676;28;20035;-66
2023/09/24 07:32:37;;;;;;;10.65;7.38;;;;;;;24.91;68.39;99740.44;5076416;28;20257;-65
2023/09/24 07:35:03;;;;;;;10.52;7.18;;;;;;;24.99;66.57;99737.34;5076304;28;20114;-67
2023/09/24 07:37:28;;;;;;;8.60;6.80;;;;;;;25.23;66.01;99731.59;5076260;28;20052;-65
2023/09/24 07:39:53;;;;;;;11.98;8.05;;;;;;;25.28;66.20;99737.06;5076436;28;20036;-65
2023/09/24 07:42:19;;;;;;;10.90;6.95;;;;;;;25.15;65.72;99735.59;5076546;28;20032;-66
2023/09/24 07:44:44;;;;;;;10.50;7.03;;;;;;;25.11;67.17;99731.75;5075992;28;20036;-67
2023/09/24 07:47:10;;;;;;;10.20;7.10;;;;;;;25.33;66.87;99735.19;5076347;28;20042;-65
2023/09/24 07:49:35;;;;;;;10.13;6.72;;;;;;;25.23;65.40;99731.59;5075944;28;20032;-65
2023/09/24 07:52:01;;;;;;;10.80;6.57;;;;;;;25.33;64.47;99739.78;5075864;28;20250;-67
2023/09/24 07:54:27;;;;;;;10.45;7.07;;;;;;;25.48;64.87;99728.25;5076369;28;20048;-67
2023/09/24 07:56:53;;;;;;;9.10;5.75;;;;;;;25.33;64.50;99727.06;5076040;28;20036;-66
2023/09/24 07:59:19;;;;;;;12.32;6.68;;;;;;;25.37;64.92;99719.22;5074435;28;20115;-64
2023/09/24 08:01:44;;;;;;;9.60;6.30;;;;;;;25.48;64.65;99720.13;5075785;28;20133;-65
2023/09/24 08:04:11;;;;;;;37.97;8.70;;;;;;;25.65;64.30;99718.06;5075832;28;20048;-64
2023/09/24 08:06:37;;;;;;;9.13;6.53;;;;;;;25.63;64.70;99710.19;5075788;28;20146;-67
2023/09/24 08:09:05;;;;;;;10.88;6.68;;;;;;;25.51;64.01;99716.88;5075280;28;20052;-65
2023/09/24 08:11:31;;;;;;;9.35;5.95;;;;;;;25.40;64.93;99716.00;5075594;28;20066;-67
2023/09/24 08:13:57;;;;;;;11.13;5.80;;;;;;;25.48;64.73;99712.81;5075544;28;20342;-64
2023/09/24 08:16:22;;;;;;;10.15;5.70;;;;;;;25.43;63.04;99718.19;5075572;28;20055;-67
2023/09/24 08:18:49;;;;;;;9.85;5.93;;;;;;;25.40;63.89;99730.38;5075990;28;20036;-67
2023/09/24 08:21:15;;;;;;;7.97;5.85;;;;;;;25.51;63.35;99719.59;5075701;28;20337;-67
2023/09/24 08:23:41;;;;;;;9.85;5.90;;;;;;;25.42;63.40;99711.97;5076130;28;20039;-66
2023/09/24 08:26:06;;;;;;;10.98;6.30;;;;;;;25.44;63.66;99712.50;5075311;28;20032;-67
2023/09/24 08:28:32;;;;;;;15.95;6.65;;;;;;;25.52;63.53;99699.53;5075628;28;20036;-67
2023/09/24 08:30:57;;;;;;;6.80;5.38;;;;;;;25.53;63.06;99696.56;5048213;28;20059;-67
2023/09/24 08:33:23;;;;;;;9.95;5.55;;;;;;;25.52;63.62;99705.78;5075687;28;20229;-67
2023/09/24 08:35:48;;;;;;;9.50;6.00;;;;;;;25.62;63.27;99697.72;5075579;28;20028;-67
2023/09/24 08:38:14;;;;;;;8.43;6.28;;;;;;;25.68;62.53;99704.03;5075675;28;20078;-66
2023/09/24 08:40:40;;;;;;;6.82;5.78;;;;;;;25.77;61.61;99702.44;5075764;28;20044;-65
2023/09/24 08:43:14;;;;;;;13.02;6.25;;;;;;;25.86;60.96;99700.88;5075452;28;20266;-66
2023/09/24 08:45:41;;;;;;;9.57;6.57;;;;;;;25.86;61.10;99692.72;5070181;28;20125;-67
2023/09/24 08:48:08;;;;;;;11.38;6.60;;;;;;;25.96;60.53;99691.97;5079587;28;20052;-64
2023/09/24 08:50:38;;;;;;;12.80;6.18;;;;;;;26.22;60.27;99691.03;5079574;28;20103;-67
2023/09/24 08:53:09;;;;;;;10.27;6.82;;;;;;;26.42;59.46;99681.34;5079686;28;20241;-64
2023/09/24 08:55:34;;;;;;;12.35;6.05;;;;;;;26.44;59.05;99681.91;5079749;28;20104;-65
2023/09/24 08:58:00;;;;;;;13.90;6.80;;;;;;;26.47;59.09;99678.66;5079297;28;20123;-65
2023/09/24 09:00:25;;;;;;;11.68;5.72;;;;;;;26.54;58.47;99682.72;5079578;28;20040;-65
2023/09/24 09:02:50;;;;;;;11.77;6.40;;;;;;;26.51;58.20;99683.28;5079559;28;20036;-65
2023/09/24 09:05:25;;;;;;;9.00;6.57;;;;;;;26.65;57.54;99684.38;5080646;28;20070;-65
2023/09/24 09:08:04;;;;;;;11.93;6.43;;;;;;;26.83;57.55;99685.78;5078985;28;20048;-65
2023/09/24 09:10:31;;;;;;;11.65;6.50;;;;;;;27.02;55.97;99676.03;5078287;28;20284;-67
2023/09/24 09:13:20;;;;;;;13.20;5.75;;;;;;;27.10;56.80;99668.44;5078889;28;20036;-67
2023/09/24 09:15:47;;;;;;;13.23;6.03;;;;;;;27.01;55.10;99668.97;5079337;28;20356;-66
2023/09/24 09:18:26;;;;;;;13.23;5.85;;;;;;;26.91;55.59;99662.69;5079064;28;20048;-65
2023/09/24 09:20:59;;;;;;;11.70;6.55;;;;;;;26.82;55.98;99658.88;5078971;28;20036;-67
2023/09/24 09:23:41;;;;;;;8.80;6.07;;;;;;;26.98;55.75;99638.81;5079124;28;20105;-67
2023/09/24 09:26:06;;;;;;;11.85;5.53;;;;;;;27.15;55.40;99658.38;5079253;28;20094;-67
2023/09/24 09:28:34;;;;;;;9.43;4.63;;;;;;;27.14;53.79;99647.78;5078636;28;20060;-65
2023/09/24 09:31:11;;;;;;;16.63;6.32;;;;;;;27.13;54.77;99652.41;5079208;28;20052;-67
2023/09/24 09:33:42;;;;;;;11.05;5.75;;;;;;;27.06;54.49;99648.34;5078736;28;20485;-64
2023/09/24 09:36:28;;;;;;;9.65;5.28;;;;;;;27.18;55.34;99648.88;5075663;28;20063;-67
2023/09/24 09:38:57;;;;;;;11.02;6.22;;;;;;;27.25;54.69;99646.69;5078745;28;20309;-65
2023/09/24 09:41:23;;;;;;;10.27;5.55;;;;;;;27.21;53.92;99649.13;5078730;28;20072;-65
2023/09/24 09:43:51;;;;;;;9.80;5.40;;;;;;;27.35;54.32;99649.41;5078539;28;20059;-67
2023/09/24 09:46:18;;;;;;;10.02;5.55;;;;;;;27.33;54.10;99646.94;5078624;28;20039;-66
2023/09/24 09:48:54;;;;;;;11.48;5.85;;;;;;;27.34;53.97;99643.13;5078546;28;20063;-67
2023/09/24 09:51:20;;;;;;;10.05;5.47;;;;;;;27.46;53.75;99642.03;5078193;28;20271;-66
2023/09/24 09:53:47;;;;;;;11.55;5.38;;;;;;;27.32;52.75;99639.88;5078681;28;20043;-67
2023/09/24 09:56:14;;;;;;;9.82;5.75;;;;;;;27.45;52.83;99633.06;5078474;28;20029;-65
2023/09/24 09:58:41;;;;;;;9.75;5.90;;;;;;;27.50;53.08;99640.38;5078295;28;20040;-65
2023/09/24 10:01:07;;;;;;;8.23;5.40;;;;;;;27.50;51.34;99634.94;5078733;28;20288;-67
2023/09/24 10:03:38;;;;;;;11.05;5.28;;;;;;;27.55;52.15;99634.94;5078398;28;20234;-67
2023/09/24 10:06:06;;;;;;;10.93;4.93;;;;;;;27.63;52.55;99628.97;5078465;28;20066;-65
2023/09/24 10:08:48;;;;;;;12.60;6.10;;;;;;;27.69;51.57;99630.56;5069578;28;20368;-65
2023/09/24 10:11:32;;;;;;;12.55;5.35;;;;;;;27.63;51.88;99628.97;5078430;28;20041;-67
2023/09/24 10:14:05;;;;;;;8.52;5.47;;;;;;;27.70;51.84;99617.78;5078168;28;20032;-65
2023/09/24 10:16:38;;;;;;;11.05;5.70;;;;;;;27.77;51.67;99616.41;5078164;28;20040;-67
2023/09/24 10:19:12;;;;;;;12.82;5.45;;;;;;;27.69;49.68;99621.59;5078319;28;20315;-67
2023/09/24 10:21:39;;;;;;;15.88;6.10;;;;;;;27.79;49.37;99619.66;5078330;28;20043;-67
2023/09/24 10:24:13;;;;;;;12.82;5.80;;;;;;;27.85;49.11;99609.56;5077897;28;20066;-67
2023/09/24 10:26:49;;;;;;;8.70;5.70;;;;;;;27.83;48.58;99612.56;5077770;28;20052;-67
2023/09/24 10:29:19;;;;;;;10.43;5.22;;;;;;;27.93;48.19;99606.25;5077827;28;20071;-67
2023/09/24 10:32:06;;;;;;;13.52;5.60;;;;;;;27.99;47.79;99605.97;5077974;28;20035;-65
2023/09/24 10:35:03;;;;;;;11.23;5.57;;;;;;;28.01;47.62;99608.41;5077304;28;20361;-67
2023/09/24 10:37:33;;;;;;;10.32;5.38;;;;;;;28.08;47.57;99611.63;5042259;28;20040;-64
2023/09/24 10:42:37;;;;;;;14.50;5.45;;;;;;;28.22;47.87;99600.97;5077613;28;20036;-65
2023/09/24 10:45:09;;;;;;;9.35;5.18;;;;;;;28.25;46.70;99592.28;5077441;28;20341;-67
2023/09/24 10:47:39;;;;;;;13.15;5.57;;;;;;;28.22;46.27;99580.00;5077715;28;20048;-67
2023/09/24 10:50:06;;;;;;;8.98;5.20;;;;;;;28.39;46.15;99581.56;5077382;28;20086;-66
2023/09/24 10:52:53;;;;;;;10.75;4.93;;;;;;;28.35;46.57;99578.59;5077976;28;20048;-67
2023/09/24 10:55:40;;;;;;;10.20;4.53;;;;;;;28.45;46.00;99570.34;5078384;28;20051;-65
2023/09/24 10:58:13;;;;;;;11.52;4.63;;;;;;;28.50;45.78;99574.94;5078158;28;20337;-67
2023/09/24 11:00:41;;;;;;;9.95;5.20;;;;;;;28.53;45.69;99568.91;5078049;28;20346;-66
2023/09/24 11:03:15;;;;;;;13.35;5.20;;;;;;;28.50;45.34;99555.88;5077916;28;20397;-65
2023/09/24 11:05:41;;;;;;;9.55;4.80;;;;;;;28.58;44.82;99552.53;5078688;28;20040;-67
2023/09/24 11:08:07;;;;;;;14.88;5.15;;;;;;;28.66;45.90;99545.66;5077928;28;20097;-66
2023/09/24 11:10:33;;;;;;;14.25;5.35;;;;;;;28.65;45.22;99547.56;5077649;28;20398;-66
2023/09/24 11:13:00;;;;;;;17.42;6.68;;;;;;;28.71;45.33;99549.16;5078717;28;20040;-67
2023/09/24 11:15:32;;;;;;;11.88;5.13;;;;;;;28.90;44.14;99552.00;5077181;28;20032;-65
2023/09/24 11:17:58;;;;;;;11.25;5.10;;;;;;;28.96;44.74;99548.13;5077038;28;20040;-65
2023/09/24 11:20:25;;;;;;;11.93;5.40;;;;;;;28.94;45.01;99542.16;5076927;28;20043;-65
2023/09/24 11:23:01;;;;;;;16.77;5.90;;;;;;;29.08;43.62;99550.47;5077019;28;20052;-67
2023/09/24 11:25:28;;;;;;;10.77;5.10;;;;;;;29.01;43.78;99553.53;5076556;28;20047;-65
2023/09/24 11:27:59;;;;;;;10.32;4.95;;;;;;;28.99;43.54;99546.75;5076583;28;20051;-65
2023/09/24 11:30:29;;;;;;;12.77;5.82;;;;;;;29.08;43.16;99536.84;5076608;28;20033;-65
2023/09/24 11:32:54;;;;;;;11.75;5.40;;;;;;;29.16;43.51;99523.41;5076608;28;20036;-66